Time;durP1;ratioP1;P1;durP2;ratioP2;P2;SDS_P1;SDS_P2;PMS_P1;PMS_P2;Temp;Humidity;BMP_temperature;BMP_pressure;BME280_temperature;BME280_humidity;BME280_pressure;Samples;Min_cycle;Max_cycle;Signal;HPM_P1;HPM_P2
2022/08/22 00:02:01;;;;;;;1.27;1.17;;;;;;;104.25;100.00;61586.06;5031992;28;20509;-89
2022/08/22 00:04:49;;;;;;;1.90;1.20;;;;;;;104.25;100.00;61586.06;5034422;28;20040;-87
2022/08/22 00:07:34;;;;;;;1.15;1.05;;;;;;;104.25;100.00;61586.06;5034579;28;20064;-90
2022/08/22 00:10:13;;;;;;;2.33;1.92;;;;;;;104.25;100.00;61586.06;5038980;28;20029;-91
2022/08/22 00:12:45;;;;;;;1.75;1.02;;;;;;;104.25;100.00;61586.06;5043287;28;20053;-89
2022/08/22 00:15:21;;;;;;;1.60;1.40;;;;;;;31.63;100.00;61586.06;5033496;28;20078;-88
2022/08/22 00:17:46;;;;;;;1.17;1.08;;;;;;;187.31;100.00;61586.06;5034325;28;20037;-90
2022/08/22 00:20:22;;;;;;;1.38;1.27;;;;;;;42.00;100.00;61586.06;5039916;28;20025;-86
2022/08/22 00:23:10;;;;;;;1.52;1.27;;;;;;;42.00;100.00;61586.06;5042136;28;20030;-86
2022/08/22 00:26:12;;;;;;;1.17;1.05;;;;;;;187.31;100.00;61586.06;5041393;28;20038;-86
2022/08/22 00:28:42;;;;;;;1.77;1.15;;;;;;;104.25;100.00;61586.06;5042398;28;20041;-86
2022/08/22 00:31:39;;;;;;;1.67;1.40;;;;;;;31.63;100.00;61586.06;5027336;28;20017;-87
2022/08/22 00:34:14;;;;;;;1.30;1.20;;;;;;;-144.47;100.00;61586.06;5034715;28;20049;-84
2022/08/22 00:36:46;;;;;;;1.45;1.27;;;;;;;104.25;100.00;61586.06;5040502;28;20014;-84
2022/08/22 00:39:16;;;;;;;3.38;1.35;;;;;;;104.25;100.00;61586.06;5040886;28;20049;-84
2022/08/22 00:41:42;;;;;;;2.33;1.33;;;;;;;104.25;100.00;61586.06;5042375;28;20089;-86
2022/08/22 00:44:30;;;;;;;1.23;1.02;;;;;;;104.25;100.00;61586.06;5039411;28;20030;-86
2022/08/22 00:47:07;;;;;;;1.77;1.45;;;;;;;104.25;100.00;61586.06;5039405;28;20022;-88
2022/08/22 00:49:33;;;;;;;1.55;1.40;;;;;;;187.31;100.00;61586.06;5038108;28;20025;-87
2022/08/22 00:52:12;;;;;;;2.20;1.35;;;;;;;-144.47;100.00;61586.06;5036128;28;20444;-88
2022/08/22 00:54:53;;;;;;;0.98;0.95;;;;;;;-144.47;100.00;61586.06;5027837;28;20056;-89
2022/08/22 00:57:50;;;;;;;2.97;1.55;;;;;;;-144.47;100.00;61586.06;5026139;28;20026;-87
2022/08/22 01:00:33;;;;;;;1.92;1.70;;;;;;;-144.47;100.00;61586.06;5020413;28;20034;-87
2022/08/22 01:03:11;;;;;;;4.60;2.25;;;;;;;-144.47;100.00;61586.06;5019800;28;20045;-88
2022/08/22 01:05:45;;;;;;;1.60;1.50;;;;;;;-144.47;100.00;61586.06;5028984;28;20037;-88
2022/08/22 01:08:32;;;;;;;2.63;1.50;;;;;;;-144.47;100.00;61586.06;5030442;28;20089;-88
2022/08/22 01:11:04;;;;;;;2.60;1.23;;;;;;;-144.47;100.00;61586.06;5021195;28;20025;-88
2022/08/22 01:13:35;;;;;;;1.55;1.45;;;;;;;-144.47;100.00;61586.06;5021816;28;20029;-87
2022/08/22 01:16:34;;;;;;;1.60;1.35;;;;;;;-144.47;100.00;61586.06;5024643;28;20034;-89
2022/08/22 01:19:24;;;;;;;1.60;1.50;;;;;;;-144.47;100.00;61586.06;5022510;28;20022;-90
2022/08/22 01:22:27;;;;;;;2.92;1.20;;;;;;;-144.47;100.00;61586.06;5024156;28;20471;-89
2022/08/22 01:25:17;;;;;;;1.92;1.35;;;;;;;-144.47;100.00;61586.06;5015909;28;20545;-89
2022/08/22 01:27:56;;;;;;;1.65;1.55;;;;;;;-144.47;100.00;61586.06;5026465;28;20030;-90
2022/08/22 01:30:57;;;;;;;1.80;1.70;;;;;;;-144.47;100.00;61586.06;5027989;28;20470;-91
2022/08/22 01:33:38;;;;;;;1.77;1.30;;;;;;;-144.47;100.00;61586.06;5020929;28;20148;-91
2022/08/22 01:36:03;;;;;;;;;;;;;;;-144.47;100.00;61586.06;5023670;28;20045;-92
2022/08/22 01:39:06;;;;;;;1.70;1.30;;;;;;;21.10;100.00;61586.06;5027617;28;20048;-91
2022/08/22 01:42:14;;;;;;;3.63;1.33;;;;;;;21.22;100.00;61586.06;5008770;28;20087;-93
2022/08/22 01:45:07;;;;;;;1.45;1.35;;;;;;;-144.47;100.00;61586.06;5006267;28;20069;-90
2022/08/22 01:47:46;;;;;;;1.65;1.55;;;;;;;-144.47;100.00;61586.06;5021558;28;20034;-91
2022/08/22 01:50:31;;;;;;;1.50;1.40;;;;;;;-144.47;100.00;61586.06;5024894;28;20033;-93
2022/08/22 01:53:23;;;;;;;1.48;1.30;;;;;;;-144.47;100.00;61586.06;5022398;28;20034;-92
2022/08/22 01:56:07;;;;;;;2.00;1.52;;;;;;;-144.47;100.00;61586.06;5027315;28;20045;-91
2022/08/22 01:58:42;;;;;;;2.10;1.00;;;;;;;-144.47;100.00;61586.06;5017689;28;20521;-90
2022/08/22 02:01:32;;;;;;;1.55;1.42;;;;;;;-144.47;100.00;61586.06;5023559;28;20504;-89
2022/08/22 02:04:06;;;;;;;;;;;;;;;-144.47;100.00;61586.06;5021537;28;20745;-90
2022/08/22 02:06:57;;;;;;;3.33;1.48;;;;;;;-144.47;100.00;61586.06;5024541;28;19929;-89
2022/08/22 02:09:31;;;;;;;2.13;1.40;;;;;;;-144.47;100.00;61586.06;5025254;28;20026;-89
2022/08/22 02:12:21;;;;;;;2.60;1.40;;;;;;;-144.47;100.00;61586.06;5028819;28;20171;-90
2022/08/22 02:15:28;;;;;;;1.20;1.10;;;;;;;-144.47;100.00;61586.06;5030690;28;20017;-88
2022/08/22 02:17:58;;;;;;;1.48;1.38;;;;;;;-144.47;100.00;61586.06;5020447;28;20522;-91
2022/08/22 02:20:58;;;;;;;1.60;1.50;;;;;;;-144.47;100.00;61586.06;5019538;28;20121;-88
2022/08/22 02:23:35;;;;;;;1.65;1.55;;;;;;;-144.47;100.00;61586.06;5018060;28;20420;-87
2022/08/22 02:26:01;;;;;;;1.48;1.35;;;;;;;-144.47;100.00;61586.06;5024782;28;20037;-87
2022/08/22 02:28:31;;;;;;;1.58;1.48;;;;;;;-144.47;100.00;61586.06;5025981;28;20091;-87
2022/08/22 02:31:13;;;;;;;1.50;1.40;;;;;;;-144.47;100.00;61586.06;5021695;28;20030;-86
2022/08/22 02:33:44;;;;;;;3.00;1.73;;;;;;;-144.47;100.00;61586.06;5028984;28;20022;-89
2022/08/22 02:36:54;;;;;;;1.70;1.60;;;;;;;-144.47;100.00;61586.06;5031494;28;20041;-88
2022/08/22 02:39:46;;;;;;;1.50;1.40;;;;;;;-144.47;100.00;61586.06;5025384;28;20033;-89
2022/08/22 02:42:18;;;;;;;1.90;1.80;;;;;;;-144.47;100.00;61586.06;5021341;28;20081;-87
2022/08/22 02:45:23;;;;;;;2.50;1.38;;;;;;;-144.47;100.00;61586.06;5024659;28;20079;-85
2022/08/22 02:47:59;;;;;;;2.60;1.52;;;;;;;-144.47;100.00;61586.06;5014361;28;20048;-85
2022/08/22 02:50:50;;;;;;;2.53;1.60;;;;;;;-144.47;100.00;61586.06;5018827;28;20546;-85
2022/08/22 02:53:22;;;;;;;2.15;1.50;;;;;;;-144.47;100.00;61586.06;5024246;28;20030;-84
2022/08/22 02:56:03;;;;;;;3.50;1.42;;;;;;;-144.47;100.00;61586.06;5022232;28;20478;-87
2022/08/22 02:58:54;;;;;;;2.00;1.83;;;;;;;-144.47;100.00;61586.06;5019034;28;20552;-86
2022/08/22 03:01:35;;;;;;;3.85;1.70;;;;;;;-144.47;100.00;61586.06;5036095;23;20049;-84
2022/08/22 03:04:30;;;;;;;1.90;1.60;;;;;;;-144.47;100.00;61586.06;5019229;28;20026;-84
2022/08/22 03:07:13;;;;;;;1.42;1.33;;;;;;;-144.47;100.00;61586.06;5017252;28;20050;-82
2022/08/22 03:09:54;;;;;;;2.47;1.77;;;;;;;-144.47;100.00;61586.06;5022593;28;20034;-84
2022/08/22 03:12:32;;;;;;;1.73;1.63;;;;;;;187.31;100.00;61586.06;5024597;28;20120;-83
2022/08/22 03:15:24;;;;;;;2.65;1.85;;;;;;;19.54;100.00;61586.06;5017995;28;20371;-83
2022/08/22 03:17:59;;;;;;;3.85;1.98;;;;;;;19.97;100.00;61586.06;4997375;28;20054;-83
2022/08/22 03:20:40;;;;;;;2.05;1.88;;;;;;;19.97;100.00;61586.06;5017321;28;20501;-82
2022/08/22 03:23:38;;;;;;;1.90;1.70;;;;;;;-144.47;100.00;61586.06;5020212;28;20038;-84
2022/08/22 03:26:13;;;;;;;1.80;1.70;;;;;;;-144.47;100.00;61586.06;5016725;28;20048;-83
2022/08/22 03:28:50;;;;;;;1.80;1.70;;;;;;;-144.47;100.00;61586.06;5022409;28;20377;-83
2022/08/22 03:31:22;;;;;;;1.65;1.55;;;;;;;-144.47;100.00;61586.06;5022435;28;20180;-83
2022/08/22 03:34:19;;;;;;;3.22;1.60;;;;;;;19.97;100.00;61586.06;5021173;28;20052;-82
2022/08/22 03:37:04;;;;;;;1.88;1.67;;;;;;;-144.47;100.00;61586.06;5022613;28;20030;-83
2022/08/22 03:39:41;;;;;;;2.33;1.73;;;;;;;-144.47;100.00;61586.06;5018440;28;20030;-83
2022/08/22 03:42:37;;;;;;;2.13;1.85;;;;;;;-144.47;100.00;61586.06;5022243;28;20046;-83
2022/08/22 03:45:08;;;;;;;1.88;1.77;;;;;;;21.26;100.00;61586.06;5016563;28;20505;-82
2022/08/22 03:47:53;;;;;;;2.53;2.33;;;;;;;20.61;100.00;61586.06;5021574;28;20057;-81
2022/08/22 03:51:09;;;;;;;3.55;2.50;;;;;;;21.26;100.00;61586.06;5019914;28;20037;-81
2022/08/22 03:54:13;;;;;;;3.78;2.05;;;;;;;21.26;100.00;61586.06;5018250;28;20486;-82
2022/08/22 03:56:58;;;;;;;1.95;1.85;;;;;;;21.26;100.00;61586.06;5020920;28;20038;-81
2022/08/22 04:00:03;;;;;;;2.65;2.17;;;;;;;21.26;100.00;61586.06;5016526;28;20029;-80
2022/08/22 04:02:57;;;;;;;2.42;2.22;;;;;;;-144.47;100.00;61586.06;5017160;28;20038;-81
2022/08/22 04:05:57;;;;;;;2.65;2.33;;;;;;;19.97;100.00;61586.06;5016003;28;20038;-81
2022/08/22 04:08:30;;;;;;;2.22;2.00;;;;;;;19.97;100.00;61586.06;5015971;28;20037;-81
2022/08/22 04:11:15;;;;;;;4.72;2.33;;;;;;;19.97;100.00;61586.06;5017059;28;20033;-81
2022/08/22 04:14:07;;;;;;;2.70;2.20;;;;;;;19.97;100.00;61586.06;5021466;28;20494;-82
2022/08/22 04:16:54;;;;;;;2.38;2.00;;;;;;;19.97;100.00;61586.06;5018394;28;20057;-82
2022/08/22 04:19:47;;;;;;;2.83;2.17;;;;;;;-144.47;100.00;61586.06;5019621;28;20117;-82
2022/08/22 04:22:30;;;;;;;2.50;2.30;;;;;;;-144.47;100.00;61586.06;5020927;28;20034;-81
2022/08/22 04:25:24;;;;;;;3.17;2.10;;;;;;;19.60;100.00;61586.06;5016916;28;20042;-79
2022/08/22 04:28:08;;;;;;;2.42;1.80;;;;;;;-144.47;100.00;61586.06;5020592;28;20486;-81
2022/08/22 04:30:45;;;;;;;1.90;1.80;;;;;;;-144.47;100.00;61586.06;5017773;28;20076;-81
2022/08/22 04:33:22;;;;;;;1.80;1.70;;;;;;;-144.47;100.00;61586.06;5020738;28;20508;-81
2022/08/22 04:35:59;;;;;;;3.60;1.90;;;;;;;-144.47;100.00;61586.06;5023002;28;20311;-80
2022/08/22 04:38:41;;;;;;;1.83;1.73;;;;;;;-144.47;100.00;61586.06;5016579;28;20115;-81
2022/08/22 04:41:19;;;;;;;1.92;1.83;;;;;;;18.67;100.00;61586.06;5039280;28;20037;-82
2022/08/22 04:43:52;;;;;;;1.85;1.75;;;;;;;187.31;100.00;61586.06;5041153;28;20037;-83
2022/08/22 04:46:25;;;;;;;1.75;1.65;;;;;;;18.67;100.00;61586.06;5044136;28;20033;-83
2022/08/22 04:49:03;;;;;;;2.40;1.70;;;;;;;-144.47;100.00;61586.06;5037829;28;20026;-82
2022/08/22 04:51:37;;;;;;;2.78;1.88;;;;;;;-144.47;100.00;61586.06;5034020;28;20044;-79
2022/08/22 04:54:35;;;;;;;1.90;1.73;;;;;;;-144.47;100.00;61586.06;5022228;28;20025;-74
2022/08/22 04:57:15;;;;;;;1.40;1.30;;;;;;;-144.47;100.00;61586.06;5020004;28;20025;-75
2022/08/22 04:59:42;;;;;;;1.77;1.67;;;;;;;-144.47;100.00;61586.06;5024951;28;20076;-75
2022/08/22 05:02:10;;;;;;;1.83;1.73;;;;;;;-144.47;100.00;61586.06;5022369;28;20069;-75
2022/08/22 05:05:11;;;;;;;1.60;1.50;;;;;;;-144.47;100.00;61586.06;5023976;28;20030;-74
2022/08/22 05:07:47;;;;;;;1.60;1.40;;;;;;;18.53;100.00;61586.06;5022044;28;20042;-74
2022/08/22 05:10:21;;;;;;;2.10;1.67;;;;;;;187.31;100.00;61586.06;5023168;28;20037;-76
2022/08/22 05:13:01;;;;;;;1.75;1.65;;;;;;;-144.47;100.00;61586.06;5025494;28;20037;-75
2022/08/22 05:15:34;;;;;;;1.60;1.50;;;;;;;-144.47;100.00;61586.06;5019112;28;20029;-75
2022/08/22 05:18:05;;;;;;;1.95;1.85;;;;;;;-144.47;100.00;61586.06;5025183;28;20041;-75
2022/08/22 05:20:33;;;;;;;4.43;1.20;;;;;;;-144.47;100.00;61586.06;5022804;28;20033;-74
2022/08/22 05:23:10;;;;;;;2.17;1.55;;;;;;;-144.47;100.00;61586.06;5025179;28;20041;-76
2022/08/22 05:25:40;;;;;;;1.60;1.50;;;;;;;-144.47;100.00;61586.06;5023957;28;20088;-80
2022/08/22 05:28:32;;;;;;;1.58;1.33;;;;;;;-144.47;100.00;61586.06;5024282;28;20381;-79
2022/08/22 05:31:02;;;;;;;5.10;1.95;;;;;;;-144.47;100.00;61586.06;5019772;28;20113;-82
2022/08/22 05:33:50;;;;;;;3.10;1.60;;;;;;;-144.47;100.00;61586.06;5025439;28;20045;-82
2022/08/22 05:36:21;;;;;;;5.60;1.70;;;;;;;-144.47;100.00;61586.06;5024538;28;20291;-80
2022/08/22 05:39:01;;;;;;;3.10;1.60;;;;;;;19.23;100.00;61586.06;5022875;28;20045;-83
2022/08/22 05:41:31;;;;;;;3.40;1.90;;;;;;;-144.47;100.00;61586.06;5019333;28;20449;-82
2022/08/22 05:43:58;;;;;;;5.10;2.35;;;;;;;-144.47;100.00;61586.06;5025242;28;20476;-82
2022/08/22 05:46:43;;;;;;;2.97;1.80;;;;;;;-144.47;100.00;61586.06;5021563;28;20060;-82
2022/08/22 05:49:25;;;;;;;2.15;1.88;;;;;;;-144.47;100.00;61586.06;5021977;28;20376;-82
2022/08/22 05:52:26;;;;;;;2.58;1.85;;;;;;;-144.47;100.00;61586.06;5013147;28;20114;-81
2022/08/22 05:55:16;;;;;;;3.10;2.25;;;;;;;-144.47;100.00;61586.06;5025365;28;20112;-83
2022/08/22 05:57:48;;;;;;;2.30;1.67;;;;;;;-144.47;100.00;61586.06;5023221;28;20725;-82
2022/08/22 06:00:19;;;;;;;1.75;1.65;;;;;;;-144.47;100.00;61586.06;5021091;28;20757;-82
2022/08/22 06:03:20;;;;;;;4.70;2.05;;;;;;;-144.47;100.00;61586.06;5024482;28;20136;-82
2022/08/22 06:05:56;;;;;;;2.13;1.60;;;;;;;-144.47;100.00;61586.06;5017900;28;20140;-82
2022/08/22 06:08:39;;;;;;;2.35;1.73;;;;;;;-144.47;100.00;61586.06;5012915;28;20041;-82
2022/08/22 06:11:16;;;;;;;1.98;1.80;;;;;;;-144.47;100.00;61586.06;5011849;28;20022;-79
2022/08/22 06:13:47;;;;;;;3.72;1.60;;;;;;;19.80;100.00;61586.06;5023780;28;20030;-81
2022/08/22 06:16:39;;;;;;;2.63;1.60;;;;;;;-144.47;100.00;61586.06;5023429;28;20033;-80
2022/08/22 06:19:05;;;;;;;3.33;1.60;;;;;;;-144.47;100.00;61586.06;5020182;28;20053;-81
2022/08/22 06:21:36;;;;;;;1.80;1.58;;;;;;;-144.47;100.00;61586.06;5024151;28;20037;-83
2022/08/22 06:24:07;;;;;;;4.30;1.95;;;;;;;-144.47;100.00;61586.06;5014806;28;20462;-80
2022/08/22 06:26:41;;;;;;;2.72;1.65;;;;;;;20.03;100.00;61586.06;5019411;28;20026;-80
2022/08/22 06:29:08;;;;;;;3.42;1.40;;;;;;;21.26;100.00;61586.06;5022656;28;20098;-80
2022/08/22 06:31:45;;;;;;;2.30;2.10;;;;;;;21.26;100.00;61586.06;5020624;28;20030;-80
2022/08/22 06:34:27;;;;;;;3.85;2.10;;;;;;;-144.47;100.00;61586.06;5022247;28;20043;-80
2022/08/22 06:36:56;;;;;;;2.22;1.83;;;;;;;20.31;100.00;61586.06;5017007;28;20045;-79
2022/08/22 06:39:33;;;;;;;2.63;2.17;;;;;;;-144.47;100.00;61586.06;5018683;28;20041;-81
2022/08/22 06:42:22;;;;;;;3.05;2.10;;;;;;;20.35;100.00;61586.06;5010145;28;20064;-81
2022/08/22 06:45:11;;;;;;;4.22;2.05;;;;;;;21.26;100.00;61586.06;5017918;28;20041;-81
2022/08/22 06:47:54;;;;;;;5.82;1.73;;;;;;;-144.47;100.00;61586.06;5019776;28;20033;-80
2022/08/22 06:50:37;;;;;;;2.33;1.92;;;;;;;20.33;100.00;61586.06;5009488;28;20509;-82
2022/08/22 06:53:07;;;;;;;5.80;2.22;;;;;;;-144.47;100.00;61586.06;5011544;28;20042;-81
2022/08/22 06:55:37;;;;;;;4.72;2.15;;;;;;;-144.47;100.00;61586.06;5018791;28;20422;-81
2022/08/22 06:58:13;;;;;;;2.20;2.10;;;;;;;20.84;100.00;104042.75;5017712;28;20040;-81
2022/08/22 07:00:42;;;;;;;2.53;2.00;;;;;;;-144.47;100.00;61586.06;5017044;28;20050;-81
2022/08/22 07:03:28;;;;;;;3.08;1.95;;;;;;;-144.47;100.00;61586.06;5020874;28;20342;-82
2022/08/22 07:05:55;;;;;;;2.25;2.03;;;;;;;-144.47;100.00;61586.06;5019194;28;20030;-81
2022/08/22 07:08:23;;;;;;;4.13;1.58;;;;;;;-144.47;100.00;61586.06;5016423;28;20045;-81
2022/08/22 07:11:07;;;;;;;4.45;1.70;;;;;;;-144.47;100.00;61586.06;5023681;28;20385;-81
2022/08/22 07:13:36;;;;;;;2.92;2.00;;;;;;;-144.47;100.00;61586.06;5019223;28;20064;-83
2022/08/22 07:16:07;;;;;;;2.08;1.88;;;;;;;-144.47;100.00;61586.06;5021644;28;20037;-80
2022/08/22 07:18:32;;;;;;;;;;;;;;;-144.47;100.00;61586.06;5022272;28;20104;-78
2022/08/22 07:21:03;;;;;;;3.75;2.03;;;;;;;-144.47;100.00;61586.06;5022951;28;20012;-79
2022/08/22 07:23:40;;;;;;;3.45;2.03;;;;;;;-144.47;100.00;61586.06;5017536;28;20496;-78
2022/08/22 07:26:24;;;;;;;3.22;2.33;;;;;;;-144.47;100.00;61586.06;5021167;28;20036;-82
2022/08/22 07:29:15;;;;;;;2.28;2.08;;;;;;;-144.47;100.00;61586.06;5022998;28;20037;-77
2022/08/22 07:31:56;;;;;;;2.38;2.17;;;;;;;-144.47;100.00;61586.06;5015076;28;20355;-76
2022/08/22 07:34:35;;;;;;;3.90;2.03;;;;;;;104.25;100.00;61586.06;5008357;28;20077;-77
2022/08/22 07:37:05;;;;;;;3.70;2.58;;;;;;;104.25;100.00;61586.06;5012359;28;20085;-77
2022/08/22 07:39:42;;;;;;;2.47;2.00;;;;;;;104.25;100.00;61586.06;5010293;28;20030;-77
2022/08/22 07:42:23;;;;;;;3.47;2.20;;;;;;;104.25;100.00;61586.06;5012795;28;20125;-79
2022/08/22 07:45:33;;;;;;;2.75;2.03;;;;;;;104.25;100.00;61586.06;5019716;28;20056;-75
2022/08/22 07:48:40;;;;;;;5.57;2.40;;;;;;;104.25;100.00;61586.06;5007368;28;20129;-75
2022/08/22 07:51:12;;;;;;;2.90;2.60;;;;;;;104.25;100.00;61586.06;5001045;28;20592;-74
2022/08/22 07:53:43;;;;;;;2.97;2.40;;;;;;;62.74;100.00;61586.06;4995167;28;20402;-78
2022/08/22 07:56:12;;;;;;;;;;;;;;;104.25;100.00;61586.06;4995717;28;20056;-77
2022/08/22 07:58:41;;;;;;;2.33;2.13;;;;;;;-144.47;100.00;61586.06;4991922;28;20626;-78
2022/08/22 08:01:15;;;;;;;3.58;2.28;;;;;;;23.02;100.00;61586.06;4995190;28;20092;-76
2022/08/22 08:03:46;;;;;;;6.18;2.33;;;;;;;104.25;100.00;61586.06;4994896;28;20507;-77
2022/08/22 08:06:12;;;;;;;;;;;;;;;42.00;100.00;61586.06;4992619;28;20046;-76
2022/08/22 08:08:40;;;;;;;3.60;2.78;;;;;;;104.25;100.00;61586.06;4993896;28;19921;-78
2022/08/22 08:11:09;;;;;;;4.72;3.15;;;;;;;104.25;100.00;61586.06;4998853;28;20060;-78
2022/08/22 08:13:50;;;;;;;2.63;2.33;;;;;;;-144.47;100.00;61586.06;4995393;28;20105;-81
2022/08/22 08:16:18;;;;;;;;;;;;;;;-144.47;100.00;61586.06;4988531;28;20061;-76
2022/08/22 08:18:47;;;;;;;2.45;1.98;;;;;;;-144.47;100.00;61586.06;4999220;28;19917;-76
2022/08/22 08:21:41;;;;;;;8.32;2.70;;;;;;;-144.47;100.00;61586.06;5000218;28;20510;-78
2022/08/22 08:24:13;;;;;;;3.58;3.28;;;;;;;-144.47;100.00;61586.06;5013742;28;20045;-76
2022/08/22 08:29:29;;;;;;;4.25;3.75;;;;;;;23.98;100.00;82149.28;5008530;28;20280;-76
2022/08/22 08:31:55;;;;;;;3.67;3.38;;;;;;;-144.47;100.00;61586.06;5009419;28;20030;-77
2022/08/22 08:34:24;;;;;;;3.83;3.33;;;;;;;-144.47;100.00;61586.06;5009142;28;20037;-76
2022/08/22 08:36:52;;;;;;;3.45;3.15;;;;;;;-144.47;100.00;61586.06;5006803;28;20022;-76
2022/08/22 08:39:37;;;;;;;6.68;4.18;;;;;;;-144.47;100.00;61586.06;5010821;28;20394;-76
2022/08/22 08:42:18;;;;;;;6.93;5.45;;;;;;;-144.47;100.00;61586.06;5010754;28;20029;-76
2022/08/22 08:44:44;;;;;;;;;;;;;;;-144.47;100.00;61586.06;5009887;28;20037;-79
2022/08/22 08:47:42;;;;;;;10.13;5.00;;;;;;;-144.47;100.00;61586.06;5007973;28;20279;-78
2022/08/22 08:50:28;;;;;;;15.07;5.20;;;;;;;-144.47;100.00;61586.06;5017406;28;20065;-78
2022/08/22 08:53:12;;;;;;;3.00;2.80;;;;;;;-144.47;100.00;61586.06;5006395;28;20033;-80
2022/08/22 08:55:49;;;;;;;4.43;4.03;;;;;;;-144.47;100.00;61586.06;5008651;28;20041;-80
2022/08/22 08:58:36;;;;;;;4.43;4.03;;;;;;;-144.47;100.00;61586.06;5007628;28;20109;-82
2022/08/22 09:01:12;;;;;;;5.88;5.20;;;;;;;-144.47;100.00;61586.06;5018999;28;20382;-79
2022/08/22 09:04:03;;;;;;;5.25;4.85;;;;;;;-144.47;100.00;61586.06;5015389;28;20033;-78
2022/08/22 09:07:08;;;;;;;5.70;4.53;;;;;;;24.95;100.00;61586.06;5016880;28;20037;-77
2022/08/22 09:10:10;;;;;;;5.78;4.72;;;;;;;-144.47;100.00;61586.06;5009061;28;20038;-78
2022/08/22 09:12:47;;;;;;;5.00;4.57;;;;;;;-144.47;100.00;61586.06;5020957;28;20025;-79
2022/08/22 09:15:48;;;;;;;4.63;4.22;;;;;;;-144.47;100.00;61586.06;5013560;28;20552;-80
2022/08/22 09:18:52;;;;;;;5.07;3.85;;;;;;;-144.47;100.00;61586.06;5012754;28;20058;-79
2022/08/22 09:21:54;;;;;;;6.70;4.05;;;;;;;-144.47;100.00;61586.06;4995295;28;20050;-80
2022/08/22 09:24:38;;;;;;;4.28;3.92;;;;;;;-144.47;100.00;61586.06;5002250;28;20108;-79
2022/08/22 09:27:32;;;;;;;4.80;4.22;;;;;;;-144.47;100.00;61586.06;4997788;28;20046;-79
2022/08/22 09:30:06;;;;;;;4.18;3.80;;;;;;;-144.47;100.00;61586.06;4983994;28;20061;-78
2022/08/22 09:33:01;;;;;;;3.85;3.50;;;;;;;-144.47;100.00;61586.06;4994328;28;20042;-79
2022/08/22 09:35:48;;;;;;;4.15;3.80;;;;;;;-144.47;100.00;61586.06;4988242;28;20072;-78
2022/08/22 09:38:50;;;;;;;5.03;2.95;;;;;;;-144.47;100.00;61586.06;5000420;28;20542;-79
2022/08/22 09:41:48;;;;;;;4.13;3.72;;;;;;;-144.47;100.00;61586.06;5004091;28;20155;-79
2022/08/22 09:44:44;;;;;;;4.63;2.85;;;;;;;-144.47;100.00;61586.06;5002947;28;20034;-78
2022/08/22 09:47:30;;;;;;;5.38;4.00;;;;;;;-144.47;100.00;61586.06;5001855;28;20129;-79
2022/08/22 09:50:16;;;;;;;5.25;4.30;;;;;;;-144.47;100.00;61586.06;4995329;28;20581;-78
2022/08/22 09:52:49;;;;;;;4.05;3.67;;;;;;;-144.47;100.00;61586.06;5016402;28;20042;-80
2022/08/22 09:55:33;;;;;;;4.22;3.65;;;;;;;-144.47;100.00;61586.06;5014994;28;20041;-79
2022/08/22 09:58:14;;;;;;;3.95;3.63;;;;;;;26.09;100.00;61586.06;5015420;28;20067;-77
2022/08/22 10:00:56;;;;;;;4.70;4.00;;;;;;;-144.47;100.00;61586.06;5017213;28;20065;-78
2022/08/22 10:03:44;;;;;;;3.78;3.30;;;;;;;62.74;100.00;61586.06;5022061;28;20033;-76
2022/08/22 10:06:42;;;;;;;5.00;3.00;;;;;;;-144.47;100.00;61586.06;5015587;28;20049;-76
2022/08/22 10:09:22;;;;;;;4.80;3.25;;;;;;;62.74;100.00;61586.06;5011604;28;20049;-76
2022/08/22 10:12:09;;;;;;;4.60;3.13;;;;;;;26.45;100.00;61586.06;5023043;28;20117;-74
2022/08/22 10:14:52;;;;;;;3.58;2.70;;;;;;;104.25;100.00;61586.06;5020610;28;20077;-75
2022/08/22 10:17:22;;;;;;;3.35;2.95;;;;;;;31.63;100.00;61586.06;5018297;28;20026;-75
2022/08/22 10:20:06;;;;;;;;;;;;;;;-144.47;100.00;61586.06;5022350;28;20029;-76
2022/08/22 10:22:43;;;;;;;2.42;2.22;;;;;;;62.74;100.00;61586.06;5016245;28;19924;-77
2022/08/22 10:25:17;;;;;;;2.90;2.28;;;;;;;104.25;100.00;61586.06;5019571;28;20045;-75
2022/08/22 10:27:52;;;;;;;1.73;1.63;;;;;;;62.74;100.00;61586.06;5015730;28;20065;-77
2022/08/22 10:30:42;;;;;;;4.75;2.70;;;;;;;26.55;100.00;61586.06;5021840;28;20025;-78
2022/08/22 10:33:20;;;;;;;3.42;2.38;;;;;;;42.00;100.00;61586.06;5010313;28;20041;-75
2022/08/22 10:35:49;;;;;;;3.25;2.50;;;;;;;26.73;100.00;61586.06;5022072;28;20041;-76
2022/08/22 10:38:23;;;;;;;2.60;1.70;;;;;;;104.25;100.00;61586.06;5021763;28;20057;-76
2022/08/22 10:41:39;;;;;;;2.33;2.13;;;;;;;62.74;100.00;61586.06;5011997;28;20033;-75
2022/08/22 10:44:33;;;;;;;7.32;2.58;;;;;;;42.00;100.00;61586.06;5014121;28;20038;-75
2022/08/22 10:47:15;;;;;;;3.35;2.30;;;;;;;42.00;100.00;61586.06;5020182;28;20087;-76
2022/08/22 10:50:07;;;;;;;1.85;1.75;;;;;;;62.74;100.00;61586.06;5020668;28;20022;-73
2022/08/22 10:52:42;;;;;;;2.58;2.38;;;;;;;62.74;100.00;61586.06;5016375;28;20136;-75
2022/08/22 10:55:16;;;;;;;2.78;1.73;;;;;;;104.25;100.00;61586.06;5023575;28;20053;-74
2022/08/22 10:57:53;;;;;;;5.53;2.03;;;;;;;62.74;100.00;61586.06;5023657;28;20037;-73
2022/08/22 11:00:25;;;;;;;2.85;1.80;;;;;;;-144.47;100.00;61586.06;5032407;28;20037;-74
2022/08/22 11:03:14;;;;;;;2.15;1.77;;;;;;;-144.47;100.00;61586.06;5026087;28;20041;-75
2022/08/22 11:05:44;;;;;;;3.47;2.20;;;;;;;-144.47;100.00;61586.06;5015170;28;20100;-74
2022/08/22 11:08:20;;;;;;;2.58;1.50;;;;;;;-144.47;100.00;61586.06;5009527;28;20109;-75
2022/08/22 11:11:04;;;;;;;2.60;2.00;;;;;;;-144.47;100.00;61586.06;5017429;28;20069;-75
2022/08/22 11:14:18;;;;;;;2.30;1.90;;;;;;;-144.47;100.00;61586.06;5016575;28;20061;-77
2022/08/22 11:17:01;;;;;;;2.35;2.03;;;;;;;-144.47;100.00;61586.06;5011517;28;20128;-74
2022/08/22 11:19:40;;;;;;;1.88;1.67;;;;;;;-144.47;100.00;61586.06;5008978;28;20044;-73
2022/08/22 11:22:29;;;;;;;2.38;1.60;;;;;;;-144.47;100.00;61586.06;5012086;28;20069;-76
2022/08/22 11:25:03;;;;;;;4.63;1.50;;;;;;;-144.47;100.00;61586.06;5015962;28;20716;-77
2022/08/22 11:27:33;;;;;;;2.13;1.67;;;;;;;-144.47;100.00;61586.06;5009245;28;20059;-76
2022/08/22 11:30:03;;;;;;;1.92;1.60;;;;;;;-144.47;100.00;61586.06;5012200;28;20040;-75
2022/08/22 11:32:43;;;;;;;1.75;1.65;;;;;;;-144.47;100.00;61586.06;5016734;28;20083;-76
2022/08/22 11:35:43;;;;;;;3.13;1.80;;;;;;;-144.47;100.00;61586.06;5020059;28;20044;-76
2022/08/22 11:38:14;;;;;;;;;;;;;;;-144.47;100.00;61586.06;5015580;28;20157;-74
2022/08/22 11:40:51;;;;;;;4.85;1.70;;;;;;;-144.47;100.00;61586.06;5013156;28;19913;-74
2022/08/22 11:43:38;;;;;;;1.83;1.73;;;;;;;-144.47;100.00;61586.06;5010898;28;20068;-74
2022/08/22 11:46:26;;;;;;;1.48;1.38;;;;;;;-144.47;100.00;61586.06;5010555;28;20072;-73
2022/08/22 11:49:22;;;;;;;2.35;1.55;;;;;;;-144.47;100.00;61586.06;5012457;28;20076;-74
2022/08/22 11:52:13;;;;;;;1.83;1.40;;;;;;;-144.47;100.00;61586.06;5015021;28;20090;-75
2022/08/22 11:54:53;;;;;;;2.58;1.55;;;;;;;-144.47;100.00;61586.06;5016546;28;20025;-77
2022/08/22 11:57:37;;;;;;;;;;;;;;;-144.47;100.00;61586.06;5017521;28;20057;-75
2022/08/22 12:00:40;;;;;;;2.53;1.67;;;;;;;-144.47;100.00;61586.06;5014598;28;20321;-74
2022/08/22 12:03:32;;;;;;;1.50;1.40;;;;;;;-144.47;100.00;61586.06;5014288;28;20034;-73
2022/08/22 12:06:10;;;;;;;1.30;1.20;;;;;;;-144.47;100.00;61586.06;5019179;28;20029;-79
2022/08/22 12:08:35;;;;;;;3.38;2.13;;;;;;;-144.47;100.00;61586.06;5020221;28;20036;-77
2022/08/22 12:11:33;;;;;;;2.38;1.25;;;;;;;-144.47;100.00;61586.06;5015786;28;20030;-78
2022/08/22 12:14:05;;;;;;;1.08;1.08;;;;;;;-144.47;100.00;61586.06;5016511;28;20500;-77
2022/08/22 12:16:52;;;;;;;2.92;1.30;;;;;;;104.25;100.00;61586.06;5009679;28;20119;-80
2022/08/22 12:19:23;;;;;;;2.15;1.10;;;;;;;30.34;100.00;61586.06;5013256;28;20100;-77
2022/08/22 12:21:58;;;;;;;2.72;2.50;;;;;;;30.34;100.00;61586.06;5021268;28;20470;-78
2022/08/22 12:24:42;;;;;;;1.40;1.30;;;;;;;30.34;100.00;61586.06;5013829;28;20871;-79
2022/08/22 12:27:29;;;;;;;1.35;1.23;;;;;;;30.45;100.00;61586.06;5012672;28;20054;-77